sensor_id;sensor_type;location;lat;lon;timestamp;P1;durP1;ratioP1;P2;durP2;ratioP2
3841;SDS011;1936;47.074;15.336;2023-05-24T00:00:01;9.60;;;8.70;;
3841;SDS011;1936;47.074;15.336;2023-05-24T00:02:09;12.47;;;8.53;;
3841;SDS011;1936;47.074;15.336;2023-05-24T00:04:14;10.50;;;9.03;;
3841;SDS011;1936;47.074;15.336;2023-05-24T00:06:20;8.40;;;7.63;;
3841;SDS011;1936;47.074;15.336;2023-05-24T00:08:26;10.70;;;9.60;;
3841;SDS011;1936;47.074;15.336;2023-05-24T00:10:29;10.40;;;8.27;;
3841;SDS011;1936;47.074;15.336;2023-05-24T00:12:33;15.63;;;9.10;;
3841;SDS011;1936;47.074;15.336;2023-05-24T00:14:37;11.00;;;9.90;;
3841;SDS011;1936;47.074;15.336;2023-05-24T00:16:40;20.30;;;10.40;;
3841;SDS011;1936;47.074;15.336;2023-05-24T00:18:44;15.50;;;10.73;;
3841;SDS011;1936;47.074;15.336;2023-05-24T00:20:47;13.80;;;10.80;;
3841;SDS011;1936;47.074;15.336;2023-05-24T00:22:53;9.00;;;8.10;;
3841;SDS011;1936;47.074;15.336;2023-05-24T00:24:57;10.33;;;9.43;;
3841;SDS011;1936;47.074;15.336;2023-05-24T00:27:00;10.43;;;9.43;;
3841;SDS011;1936;47.074;15.336;2023-05-24T00:29:03;9.27;;;8.33;;
3841;SDS011;1936;47.074;15.336;2023-05-24T00:31:07;10.03;;;8.37;;
3841;SDS011;1936;47.074;15.336;2023-05-24T00:33:10;12.10;;;9.20;;
3841;SDS011;1936;47.074;15.336;2023-05-24T00:35:13;10.23;;;9.13;;
3841;SDS011;1936;47.074;15.336;2023-05-24T00:37:17;11.07;;;10.07;;
3841;SDS011;1936;47.074;15.336;2023-05-24T00:39:21;12.43;;;9.70;;
3841;SDS011;1936;47.074;15.336;2023-05-24T00:41:25;10.87;;;9.87;;
3841;SDS011;1936;47.074;15.336;2023-05-24T00:43:29;13.60;;;10.13;;
3841;SDS011;1936;47.074;15.336;2023-05-24T00:45:32;10.20;;;9.20;;
3841;SDS011;1936;47.074;15.336;2023-05-24T00:47:36;12.07;;;10.43;;
3841;SDS011;1936;47.074;15.336;2023-05-24T00:49:40;21.43;;;10.50;;
3841;SDS011;1936;47.074;15.336;2023-05-24T00:51:44;14.60;;;12.73;;
3841;SDS011;1936;47.074;15.336;2023-05-24T00:53:47;15.37;;;11.13;;
3841;SDS011;1936;47.074;15.336;2023-05-24T00:55:52;11.20;;;10.10;;
3841;SDS011;1936;47.074;15.336;2023-05-24T00:57:56;10.23;;;9.07;;
3841;SDS011;1936;47.074;15.336;2023-05-24T01:00:00;11.93;;;10.40;;
3841;SDS011;1936;47.074;15.336;2023-05-24T01:02:05;12.30;;;9.83;;
3841;SDS011;1936;47.074;15.336;2023-05-24T01:04:08;10.07;;;9.07;;
3841;SDS011;1936;47.074;15.336;2023-05-24T01:06:12;14.60;;;9.70;;
3841;SDS011;1936;47.074;15.336;2023-05-24T01:08:19;10.67;;;9.10;;
3841;SDS011;1936;47.074;15.336;2023-05-24T01:10:37;10.93;;;9.27;;
3841;SDS011;1936;47.074;15.336;2023-05-24T01:12:52;10.20;;;9.03;;
3841;SDS011;1936;47.074;15.336;2023-05-24T01:15:03;9.80;;;8.77;;
3841;SDS011;1936;47.074;15.336;2023-05-24T01:17:13;11.13;;;8.97;;
3841;SDS011;1936;47.074;15.336;2023-05-24T01:19:34;8.83;;;7.93;;
3841;SDS011;1936;47.074;15.336;2023-05-24T01:21:52;13.30;;;9.60;;
3841;SDS011;1936;47.074;15.336;2023-05-24T01:24:03;9.60;;;8.60;;
3841;SDS011;1936;47.074;15.336;2023-05-24T01:26:20;16.30;;;9.70;;
3841;SDS011;1936;47.074;15.336;2023-05-24T01:28:35;12.73;;;10.03;;
3841;SDS011;1936;47.074;15.336;2023-05-24T01:30:39;13.50;;;10.07;;
3841;SDS011;1936;47.074;15.336;2023-05-24T01:32:44;10.80;;;9.70;;
3841;SDS011;1936;47.074;15.336;2023-05-24T01:34:48;15.27;;;10.20;;
3841;SDS011;1936;47.074;15.336;2023-05-24T01:36:51;11.13;;;9.93;;
3841;SDS011;1936;47.074;15.336;2023-05-24T01:38:55;10.23;;;9.23;;
3841;SDS011;1936;47.074;15.336;2023-05-24T01:41:05;16.93;;;9.47;;
3841;SDS011;1936;47.074;15.336;2023-05-24T01:43:17;10.00;;;9.00;;
3841;SDS011;1936;47.074;15.336;2023-05-24T01:45:31;10.87;;;9.77;;
3841;SDS011;1936;47.074;15.336;2023-05-24T01:47:41;10.47;;;8.43;;
3841;SDS011;1936;47.074;15.336;2023-05-24T01:49:58;10.43;;;9.37;;
3841;SDS011;1936;47.074;15.336;2023-05-24T01:52:10;12.27;;;10.20;;
3841;SDS011;1936;47.074;15.336;2023-05-24T01:54:17;11.63;;;9.93;;
3841;SDS011;1936;47.074;15.336;2023-05-24T01:56:24;13.80;;;11.70;;
3841;SDS011;1936;47.074;15.336;2023-05-24T01:58:31;10.80;;;9.17;;
3841;SDS011;1936;47.074;15.336;2023-05-24T02:00:37;11.33;;;10.27;;
3841;SDS011;1936;47.074;15.336;2023-05-24T02:02:42;14.50;;;9.00;;
3841;SDS011;1936;47.074;15.336;2023-05-24T02:04:46;9.50;;;8.60;;
3841;SDS011;1936;47.074;15.336;2023-05-24T02:06:49;18.53;;;9.47;;
3841;SDS011;1936;47.074;15.336;2023-05-24T02:08:52;24.87;;;8.80;;
3841;SDS011;1936;47.074;15.336;2023-05-24T02:10:56;9.23;;;8.23;;
3841;SDS011;1936;47.074;15.336;2023-05-24T02:12:59;15.77;;;8.77;;
3841;SDS011;1936;47.074;15.336;2023-05-24T02:15:03;9.30;;;8.30;;
3841;SDS011;1936;47.074;15.336;2023-05-24T02:17:08;8.87;;;7.93;;
3841;SDS011;1936;47.074;15.336;2023-05-24T02:19:11;10.23;;;9.03;;
3841;SDS011;1936;47.074;15.336;2023-05-24T02:21:15;10.07;;;9.07;;
3841;SDS011;1936;47.074;15.336;2023-05-24T02:23:18;10.63;;;8.33;;
3841;SDS011;1936;47.074;15.336;2023-05-24T02:25:21;10.37;;;9.27;;
3841;SDS011;1936;47.074;15.336;2023-05-24T02:27:25;9.37;;;8.13;;
3841;SDS011;1936;47.074;15.336;2023-05-24T02:29:28;12.00;;;8.80;;
3841;SDS011;1936;47.074;15.336;2023-05-24T02:31:32;11.03;;;9.90;;
3841;SDS011;1936;47.074;15.336;2023-05-24T02:33:37;10.40;;;9.37;;
3841;SDS011;1936;47.074;15.336;2023-05-24T02:35:40;9.77;;;8.90;;
3841;SDS011;1936;47.074;15.336;2023-05-24T02:37:44;12.60;;;11.33;;
3841;SDS011;1936;47.074;15.336;2023-05-24T02:39:48;11.30;;;10.20;;
3841;SDS011;1936;47.074;15.336;2023-05-24T02:41:51;10.80;;;9.70;;
3841;SDS011;1936;47.074;15.336;2023-05-24T02:43:54;10.80;;;9.80;;
3841;SDS011;1936;47.074;15.336;2023-05-24T02:45:58;9.83;;;7.67;;
3841;SDS011;1936;47.074;15.336;2023-05-24T02:48:01;10.87;;;9.30;;
3841;SDS011;1936;47.074;15.336;2023-05-24T02:50:06;9.20;;;7.77;;
3841;SDS011;1936;47.074;15.336;2023-05-24T02:52:11;10.00;;;8.30;;
3841;SDS011;1936;47.074;15.336;2023-05-24T02:54:15;10.20;;;7.73;;
3841;SDS011;1936;47.074;15.336;2023-05-24T02:56:19;9.97;;;8.70;;
3841;SDS011;1936;47.074;15.336;2023-05-24T02:58:22;13.00;;;8.83;;
3841;SDS011;1936;47.074;15.336;2023-05-24T03:00:29;12.63;;;10.03;;
3841;SDS011;1936;47.074;15.336;2023-05-24T03:02:32;10.60;;;9.50;;
3841;SDS011;1936;47.074;15.336;2023-05-24T03:04:39;10.90;;;9.37;;
3841;SDS011;1936;47.074;15.336;2023-05-24T03:06:43;13.57;;;9.57;;
3841;SDS011;1936;47.074;15.336;2023-05-24T03:08:47;11.83;;;9.63;;
3841;SDS011;1936;47.074;15.336;2023-05-24T03:10:51;9.77;;;8.83;;
3841;SDS011;1936;47.074;15.336;2023-05-24T03:12:54;9.97;;;9.00;;
3841;SDS011;1936;47.074;15.336;2023-05-24T03:14:57;12.43;;;9.73;;
3841;SDS011;1936;47.074;15.336;2023-05-24T03:17:01;10.23;;;7.87;;
3841;SDS011;1936;47.074;15.336;2023-05-24T03:19:04;9.20;;;7.93;;
3841;SDS011;1936;47.074;15.336;2023-05-24T03:21:10;9.00;;;8.10;;
3841;SDS011;1936;47.074;15.336;2023-05-24T03:23:15;9.30;;;8.30;;
3841;SDS011;1936;47.074;15.336;2023-05-24T03:25:19;14.90;;;9.97;;
3841;SDS011;1936;47.074;15.336;2023-05-24T03:27:22;10.27;;;8.70;;
3841;SDS011;1936;47.074;15.336;2023-05-24T03:29:26;9.97;;;9.07;;
3841;SDS011;1936;47.074;15.336;2023-05-24T03:31:29;10.20;;;8.87;;
3841;SDS011;1936;47.074;15.336;2023-05-24T03:33:33;14.60;;;10.13;;
3841;SDS011;1936;47.074;15.336;2023-05-24T03:35:37;12.70;;;10.90;;
3841;SDS011;1936;47.074;15.336;2023-05-24T03:37:40;11.30;;;9.93;;
3841;SDS011;1936;47.074;15.336;2023-05-24T03:39:45;13.30;;;10.73;;
3841;SDS011;1936;47.074;15.336;2023-05-24T03:41:48;16.47;;;12.40;;
3841;SDS011;1936;47.074;15.336;2023-05-24T03:43:51;11.67;;;10.47;;
3841;SDS011;1936;47.074;15.336;2023-05-24T03:45:55;10.67;;;9.57;;
3841;SDS011;1936;47.074;15.336;2023-05-24T03:47:58;12.47;;;10.03;;
3841;SDS011;1936;47.074;15.336;2023-05-24T03:50:02;11.43;;;10.30;;
3841;SDS011;1936;47.074;15.336;2023-05-24T03:52:06;11.07;;;9.90;;
3841;SDS011;1936;47.074;15.336;2023-05-24T03:54:09;12.17;;;10.97;;
3841;SDS011;1936;47.074;15.336;2023-05-24T03:56:14;11.30;;;10.20;;
3841;SDS011;1936;47.074;15.336;2023-05-24T03:58:17;11.47;;;9.57;;
3841;SDS011;1936;47.074;15.336;2023-05-24T04:00:21;9.63;;;8.67;;
3841;SDS011;1936;47.074;15.336;2023-05-24T04:02:24;15.63;;;8.60;;
3841;SDS011;1936;47.074;15.336;2023-05-24T04:04:27;10.77;;;8.97;;
3841;SDS011;1936;47.074;15.336;2023-05-24T04:06:31;11.33;;;10.23;;
3841;SDS011;1936;47.074;15.336;2023-05-24T04:08:37;10.47;;;9.50;;
3841;SDS011;1936;47.074;15.336;2023-05-24T04:10:40;12.77;;;11.33;;
3841;SDS011;1936;47.074;15.336;2023-05-24T04:12:46;9.87;;;9.00;;
3841;SDS011;1936;47.074;15.336;2023-05-24T04:14:49;13.57;;;11.87;;
3841;SDS011;1936;47.074;15.336;2023-05-24T04:16:53;13.43;;;10.53;;
3841;SDS011;1936;47.074;15.336;2023-05-24T04:18:57;11.00;;;9.90;;
3841;SDS011;1936;47.074;15.336;2023-05-24T04:21:04;10.90;;;9.80;;
3841;SDS011;1936;47.074;15.336;2023-05-24T04:23:08;10.80;;;9.80;;
3841;SDS011;1936;47.074;15.336;2023-05-24T04:25:12;9.83;;;8.83;;
3841;SDS011;1936;47.074;15.336;2023-05-24T04:27:15;11.57;;;9.63;;
3841;SDS011;1936;47.074;15.336;2023-05-24T04:29:20;11.23;;;10.23;;
3841;SDS011;1936;47.074;15.336;2023-05-24T04:31:26;13.10;;;9.90;;
3841;SDS011;1936;47.074;15.336;2023-05-24T04:33:31;13.03;;;9.90;;
3841;SDS011;1936;47.074;15.336;2023-05-24T04:35:34;10.87;;;9.87;;
3841;SDS011;1936;47.074;15.336;2023-05-24T04:37:38;13.87;;;9.50;;
3841;SDS011;1936;47.074;15.336;2023-05-24T04:39:42;10.73;;;9.63;;
3841;SDS011;1936;47.074;15.336;2023-05-24T04:41:46;10.67;;;9.57;;
3841;SDS011;1936;47.074;15.336;2023-05-24T04:43:51;11.40;;;8.23;;
3841;SDS011;1936;47.074;15.336;2023-05-24T04:45:56;10.30;;;9.20;;
3841;SDS011;1936;47.074;15.336;2023-05-24T04:47:59;15.47;;;9.73;;
3841;SDS011;1936;47.074;15.336;2023-05-24T04:50:03;10.07;;;9.03;;
3841;SDS011;1936;47.074;15.336;2023-05-24T04:52:08;10.93;;;9.50;;
3841;SDS011;1936;47.074;15.336;2023-05-24T04:54:11;10.47;;;9.37;;
3841;SDS011;1936;47.074;15.336;2023-05-24T04:56:15;11.83;;;10.63;;
3841;SDS011;1936;47.074;15.336;2023-05-24T04:58:19;11.50;;;9.40;;
3841;SDS011;1936;47.074;15.336;2023-05-24T05:00:23;9.53;;;8.57;;
3841;SDS011;1936;47.074;15.336;2023-05-24T05:02:28;9.67;;;8.13;;
3841;SDS011;1936;47.074;15.336;2023-05-24T05:04:31;10.40;;;9.40;;
3841;SDS011;1936;47.074;15.336;2023-05-24T05:06:34;10.17;;;8.60;;
3841;SDS011;1936;47.074;15.336;2023-05-24T05:08:40;10.03;;;8.90;;
3841;SDS011;1936;47.074;15.336;2023-05-24T05:10:44;11.43;;;10.33;;
3841;SDS011;1936;47.074;15.336;2023-05-24T05:12:49;12.03;;;9.43;;
3841;SDS011;1936;47.074;15.336;2023-05-24T05:14:52;10.00;;;8.83;;
3841;SDS011;1936;47.074;15.336;2023-05-24T05:16:56;11.50;;;10.30;;
3841;SDS011;1936;47.074;15.336;2023-05-24T05:19:01;12.40;;;10.13;;
3841;SDS011;1936;47.074;15.336;2023-05-24T05:21:06;12.40;;;9.90;;
3841;SDS011;1936;47.074;15.336;2023-05-24T05:23:09;10.10;;;9.20;;
3841;SDS011;1936;47.074;15.336;2023-05-24T05:25:13;12.90;;;8.50;;
3841;SDS011;1936;47.074;15.336;2023-05-24T05:27:16;12.60;;;8.13;;
3841;SDS011;1936;47.074;15.336;2023-05-24T05:29:20;10.30;;;9.30;;
3841;SDS011;1936;47.074;15.336;2023-05-24T05:31:25;10.43;;;9.20;;
3841;SDS011;1936;47.074;15.336;2023-05-24T05:33:29;10.60;;;8.90;;
3841;SDS011;1936;47.074;15.336;2023-05-24T05:35:34;10.70;;;9.60;;
3841;SDS011;1936;47.074;15.336;2023-05-24T05:37:37;11.50;;;10.13;;
3841;SDS011;1936;47.074;15.336;2023-05-24T05:39:41;10.00;;;9.10;;
3841;SDS011;1936;47.074;15.336;2023-05-24T05:41:44;12.70;;;11.37;;
3841;SDS011;1936;47.074;15.336;2023-05-24T05:43:47;14.90;;;11.30;;
3841;SDS011;1936;47.074;15.336;2023-05-24T05:45:51;10.43;;;9.53;;
3841;SDS011;1936;47.074;15.336;2023-05-24T05:47:54;10.37;;;9.43;;
3841;SDS011;1936;47.074;15.336;2023-05-24T05:49:58;12.57;;;10.13;;
3841;SDS011;1936;47.074;15.336;2023-05-24T05:52:03;10.87;;;9.30;;
3841;SDS011;1936;47.074;15.336;2023-05-24T05:54:07;11.73;;;8.80;;
3841;SDS011;1936;47.074;15.336;2023-05-24T05:56:15;10.03;;;9.00;;
3841;SDS011;1936;47.074;15.336;2023-05-24T05:58:18;10.43;;;8.70;;
3841;SDS011;1936;47.074;15.336;2023-05-24T06:00:21;10.67;;;9.57;;
3841;SDS011;1936;47.074;15.336;2023-05-24T06:02:25;9.97;;;8.93;;
3841;SDS011;1936;47.074;15.336;2023-05-24T06:04:28;12.73;;;10.20;;
3841;SDS011;1936;47.074;15.336;2023-05-24T06:06:32;10.93;;;9.83;;
3841;SDS011;1936;47.074;15.336;2023-05-24T06:08:36;15.93;;;10.00;;
3841;SDS011;1936;47.074;15.336;2023-05-24T06:10:41;10.13;;;9.23;;
3841;SDS011;1936;47.074;15.336;2023-05-24T06:12:45;10.13;;;9.20;;
3841;SDS011;1936;47.074;15.336;2023-05-24T06:14:48;10.23;;;9.23;;
3841;SDS011;1936;47.074;15.336;2023-05-24T06:16:52;11.90;;;9.20;;
3841;SDS011;1936;47.074;15.336;2023-05-24T06:19:00;10.73;;;9.73;;
3841;SDS011;1936;47.074;15.336;2023-05-24T06:21:06;11.40;;;10.30;;
3841;SDS011;1936;47.074;15.336;2023-05-24T06:23:11;11.87;;;10.10;;
3841;SDS011;1936;47.074;15.336;2023-05-24T06:25:16;10.20;;;9.30;;
3841;SDS011;1936;47.074;15.336;2023-05-24T06:27:21;10.63;;;9.63;;
3841;SDS011;1936;47.074;15.336;2023-05-24T06:29:25;11.90;;;9.10;;
3841;SDS011;1936;47.074;15.336;2023-05-24T06:31:28;10.43;;;9.43;;
3841;SDS011;1936;47.074;15.336;2023-05-24T06:33:31;10.97;;;9.90;;
3841;SDS011;1936;47.074;15.336;2023-05-24T06:35:38;9.83;;;8.83;;
3841;SDS011;1936;47.074;15.336;2023-05-24T06:37:41;11.00;;;9.90;;
3841;SDS011;1936;47.074;15.336;2023-05-24T06:39:45;11.27;;;10.17;;
3841;SDS011;1936;47.074;15.336;2023-05-24T06:41:50;12.67;;;9.73;;
3841;SDS011;1936;47.074;15.336;2023-05-24T06:43:54;12.50;;;11.30;;
3841;SDS011;1936;47.074;15.336;2023-05-24T06:45:57;11.37;;;10.20;;
3841;SDS011;1936;47.074;15.336;2023-05-24T06:48:01;10.67;;;9.60;;
3841;SDS011;1936;47.074;15.336;2023-05-24T06:50:05;11.50;;;10.30;;
3841;SDS011;1936;47.074;15.336;2023-05-24T06:52:09;11.10;;;10.00;;
3841;SDS011;1936;47.074;15.336;2023-05-24T06:54:14;11.57;;;10.33;;
3841;SDS011;1936;47.074;15.336;2023-05-24T06:56:17;11.90;;;10.80;;
3841;SDS011;1936;47.074;15.336;2023-05-24T06:58:23;13.10;;;11.90;;
3841;SDS011;1936;47.074;15.336;2023-05-24T07:00:27;12.43;;;11.23;;
3841;SDS011;1936;47.074;15.336;2023-05-24T07:02:30;16.47;;;11.37;;
3841;SDS011;1936;47.074;15.336;2023-05-24T07:04:34;14.37;;;12.87;;
3841;SDS011;1936;47.074;15.336;2023-05-24T07:06:37;18.60;;;12.90;;
3841;SDS011;1936;47.074;15.336;2023-05-24T07:08:40;12.20;;;10.77;;
3841;SDS011;1936;47.074;15.336;2023-05-24T07:10:44;13.43;;;11.27;;
3841;SDS011;1936;47.074;15.336;2023-05-24T07:12:47;13.90;;;12.53;;
3841;SDS011;1936;47.074;15.336;2023-05-24T07:14:52;14.23;;;11.83;;
3841;SDS011;1936;47.074;15.336;2023-05-24T07:16:56;13.90;;;12.50;;
3841;SDS011;1936;47.074;15.336;2023-05-24T07:19:00;15.33;;;13.70;;
3841;SDS011;1936;47.074;15.336;2023-05-24T07:21:05;19.33;;;13.53;;
3841;SDS011;1936;47.074;15.336;2023-05-24T07:23:08;15.33;;;13.83;;
3841;SDS011;1936;47.074;15.336;2023-05-24T07:25:12;15.60;;;14.00;;
3841;SDS011;1936;47.074;15.336;2023-05-24T07:27:16;16.43;;;14.40;;
3841;SDS011;1936;47.074;15.336;2023-05-24T07:29:19;14.70;;;13.20;;
3841;SDS011;1936;47.074;15.336;2023-05-24T07:31:24;16.50;;;14.80;;
3841;SDS011;1936;47.074;15.336;2023-05-24T07:33:30;14.30;;;12.97;;
3841;SDS011;1936;47.074;15.336;2023-05-24T07:35:34;13.97;;;12.50;;
3841;SDS011;1936;47.074;15.336;2023-05-24T07:37:38;13.03;;;11.70;;
3841;SDS011;1936;47.074;15.336;2023-05-24T07:39:42;16.60;;;11.73;;
3841;SDS011;1936;47.074;15.336;2023-05-24T07:41:46;13.90;;;12.07;;
3841;SDS011;1936;47.074;15.336;2023-05-24T07:43:51;14.37;;;12.87;;
3841;SDS011;1936;47.074;15.336;2023-05-24T07:45:55;13.83;;;12.23;;
3841;SDS011;1936;47.074;15.336;2023-05-24T07:48:00;14.53;;;12.80;;
3841;SDS011;1936;47.074;15.336;2023-05-24T07:50:03;14.83;;;13.43;;
3841;SDS011;1936;47.074;15.336;2023-05-24T07:52:07;14.30;;;12.80;;
3841;SDS011;1936;47.074;15.336;2023-05-24T07:54:10;13.03;;;11.80;;
3841;SDS011;1936;47.074;15.336;2023-05-24T07:56:14;14.33;;;12.93;;
3841;SDS011;1936;47.074;15.336;2023-05-24T07:58:18;14.43;;;12.73;;
3841;SDS011;1936;47.074;15.336;2023-05-24T08:00:21;15.10;;;12.53;;
3841;SDS011;1936;47.074;15.336;2023-05-24T08:02:25;14.30;;;12.80;;
3841;SDS011;1936;47.074;15.336;2023-05-24T08:04:30;12.23;;;11.03;;
3841;SDS011;1936;47.074;15.336;2023-05-24T08:06:34;14.43;;;12.93;;
3841;SDS011;1936;47.074;15.336;2023-05-24T08:08:38;13.10;;;11.77;;
3841;SDS011;1936;47.074;15.336;2023-05-24T08:10:42;12.57;;;11.30;;
3841;SDS011;1936;47.074;15.336;2023-05-24T08:12:45;13.27;;;11.90;;
3841;SDS011;1936;47.074;15.336;2023-05-24T08:14:50;12.03;;;10.73;;
3841;SDS011;1936;47.074;15.336;2023-05-24T08:16:53;12.33;;;11.03;;
3841;SDS011;1936;47.074;15.336;2023-05-24T08:18:57;13.10;;;11.80;;
3841;SDS011;1936;47.074;15.336;2023-05-24T08:21:02;16.13;;;12.20;;
3841;SDS011;1936;47.074;15.336;2023-05-24T08:23:05;13.30;;;12.00;;
3841;SDS011;1936;47.074;15.336;2023-05-24T08:25:09;11.33;;;9.83;;
3841;SDS011;1936;47.074;15.336;2023-05-24T08:27:12;12.07;;;10.77;;
3841;SDS011;1936;47.074;15.336;2023-05-24T08:29:16;11.93;;;10.70;;
3841;SDS011;1936;47.074;15.336;2023-05-24T08:31:19;13.97;;;11.03;;
3841;SDS011;1936;47.074;15.336;2023-05-24T08:33:24;19.43;;;11.87;;
3841;SDS011;1936;47.074;15.336;2023-05-24T08:35:27;11.33;;;10.13;;
3841;SDS011;1936;47.074;15.336;2023-05-24T08:37:32;11.93;;;10.40;;
3841;SDS011;1936;47.074;15.336;2023-05-24T08:39:35;13.33;;;10.03;;
3841;SDS011;1936;47.074;15.336;2023-05-24T08:41:39;10.23;;;9.23;;
3841;SDS011;1936;47.074;15.336;2023-05-24T08:43:42;13.03;;;9.27;;
3841;SDS011;1936;47.074;15.336;2023-05-24T08:45:48;11.40;;;10.30;;
3841;SDS011;1936;47.074;15.336;2023-05-24T08:47:53;11.10;;;10.10;;
3841;SDS011;1936;47.074;15.336;2023-05-24T08:49:58;9.93;;;8.93;;
3841;SDS011;1936;47.074;15.336;2023-05-24T08:52:03;11.17;;;10.07;;
3841;SDS011;1936;47.074;15.336;2023-05-24T08:54:09;10.63;;;9.53;;
3841;SDS011;1936;47.074;15.336;2023-05-24T08:56:14;10.93;;;9.93;;
3841;SDS011;1936;47.074;15.336;2023-05-24T08:58:19;15.47;;;11.33;;
3841;SDS011;1936;47.074;15.336;2023-05-24T09:00:26;10.50;;;9.50;;
3841;SDS011;1936;47.074;15.336;2023-05-24T09:02:29;12.70;;;11.23;;
3841;SDS011;1936;47.074;15.336;2023-05-24T09:04:34;11.87;;;10.80;;
3841;SDS011;1936;47.074;15.336;2023-05-24T09:06:40;11.80;;;9.00;;
3841;SDS011;1936;47.074;15.336;2023-05-24T09:08:44;11.67;;;10.43;;
3841;SDS011;1936;47.074;15.336;2023-05-24T09:10:51;12.93;;;10.07;;
3841;SDS011;1936;47.074;15.336;2023-05-24T09:12:56;10.30;;;9.30;;
3841;SDS011;1936;47.074;15.336;2023-05-24T09:15:03;12.13;;;10.30;;
3841;SDS011;1936;47.074;15.336;2023-05-24T09:17:09;10.50;;;9.40;;
3841;SDS011;1936;47.074;15.336;2023-05-24T09:19:16;10.00;;;9.00;;
3841;SDS011;1936;47.074;15.336;2023-05-24T09:21:21;14.20;;;9.37;;
3841;SDS011;1936;47.074;15.336;2023-05-24T09:23:25;10.90;;;9.90;;
3841;SDS011;1936;47.074;15.336;2023-05-24T09:25:29;10.63;;;9.53;;
3841;SDS011;1936;47.074;15.336;2023-05-24T09:27:34;10.53;;;9.47;;
3841;SDS011;1936;47.074;15.336;2023-05-24T09:29:38;13.90;;;11.63;;
3841;SDS011;1936;47.074;15.336;2023-05-24T09:32:06;11.43;;;10.30;;
3841;SDS011;1936;47.074;15.336;2023-05-24T09:34:12;11.17;;;10.17;;
3841;SDS011;1936;47.074;15.336;2023-05-24T09:36:17;13.50;;;11.07;;
3841;SDS011;1936;47.074;15.336;2023-05-24T09:38:20;10.77;;;9.70;;
3841;SDS011;1936;47.074;15.336;2023-05-24T09:40:27;10.63;;;9.57;;
3841;SDS011;1936;47.074;15.336;2023-05-24T09:42:31;10.20;;;9.20;;
3841;SDS011;1936;47.074;15.336;2023-05-24T09:44:36;11.17;;;9.57;;
3841;SDS011;1936;47.074;15.336;2023-05-24T09:46:39;10.23;;;9.23;;
3841;SDS011;1936;47.074;15.336;2023-05-24T09:48:51;10.47;;;9.43;;
3841;SDS011;1936;47.074;15.336;2023-05-24T09:51:04;11.10;;;8.63;;
3841;SDS011;1936;47.074;15.336;2023-05-24T09:53:10;12.97;;;9.37;;
3841;SDS011;1936;47.074;15.336;2023-05-24T09:55:13;13.80;;;9.20;;
3841;SDS011;1936;47.074;15.336;2023-05-24T09:57:18;15.40;;;9.30;;
3841;SDS011;1936;47.074;15.336;2023-05-24T09:59:23;9.63;;;8.00;;
3841;SDS011;1936;47.074;15.336;2023-05-24T10:01:28;9.53;;;8.60;;
3841;SDS011;1936;47.074;15.336;2023-05-24T10:03:34;10.70;;;7.80;;
3841;SDS011;1936;47.074;15.336;2023-05-24T10:05:40;15.17;;;9.23;;
3841;SDS011;1936;47.074;15.336;2023-05-24T10:07:44;9.97;;;9.00;;
3841;SDS011;1936;47.074;15.336;2023-05-24T10:09:48;9.30;;;8.37;;
3841;SDS011;1936;47.074;15.336;2023-05-24T10:11:52;9.93;;;8.30;;
3841;SDS011;1936;47.074;15.336;2023-05-24T10:13:57;9.40;;;8.37;;
3841;SDS011;1936;47.074;15.336;2023-05-24T10:16:01;9.13;;;8.23;;
3841;SDS011;1936;47.074;15.336;2023-05-24T10:18:05;8.40;;;7.60;;
3841;SDS011;1936;47.074;15.336;2023-05-24T10:20:14;10.83;;;8.73;;
3841;SDS011;1936;47.074;15.336;2023-05-24T10:22:18;10.80;;;9.80;;
3841;SDS011;1936;47.074;15.336;2023-05-24T10:24:24;8.40;;;7.60;;
3841;SDS011;1936;47.074;15.336;2023-05-24T10:26:31;9.00;;;8.10;;
3841;SDS011;1936;47.074;15.336;2023-05-24T10:28:35;7.90;;;7.20;;
3841;SDS011;1936;47.074;15.336;2023-05-24T10:30:43;8.60;;;7.77;;
3841;SDS011;1936;47.074;15.336;2023-05-24T10:32:53;8.63;;;7.00;;
3841;SDS011;1936;47.074;15.336;2023-05-24T10:35:00;8.53;;;7.53;;
3841;SDS011;1936;47.074;15.336;2023-05-24T10:37:05;8.30;;;7.50;;
3841;SDS011;1936;47.074;15.336;2023-05-24T10:39:10;7.97;;;7.27;;
3841;SDS011;1936;47.074;15.336;2023-05-24T10:41:13;9.20;;;6.40;;
3841;SDS011;1936;47.074;15.336;2023-05-24T10:43:19;6.93;;;6.30;;
3841;SDS011;1936;47.074;15.336;2023-05-24T10:45:29;6.40;;;5.90;;
3841;SDS011;1936;47.074;15.336;2023-05-24T10:47:36;6.83;;;6.33;;
3841;SDS011;1936;47.074;15.336;2023-05-24T10:49:46;5.50;;;4.90;;
3841;SDS011;1936;47.074;15.336;2023-05-24T10:51:53;6.23;;;5.60;;
3841;SDS011;1936;47.074;15.336;2023-05-24T10:54:09;5.73;;;5.23;;
3841;SDS011;1936;47.074;15.336;2023-05-24T10:56:14;6.87;;;6.17;;
3841;SDS011;1936;47.074;15.336;2023-05-24T10:58:21;7.00;;;5.70;;
3841;SDS011;1936;47.074;15.336;2023-05-24T11:00:31;5.43;;;4.93;;
3841;SDS011;1936;47.074;15.336;2023-05-24T11:02:36;6.83;;;6.13;;
3841;SDS011;1936;47.074;15.336;2023-05-24T11:04:41;6.30;;;5.60;;
3841;SDS011;1936;47.074;15.336;2023-05-24T11:06:48;8.00;;;5.40;;
3841;SDS011;1936;47.074;15.336;2023-05-24T11:09:00;7.03;;;6.30;;
3841;SDS011;1936;47.074;15.336;2023-05-24T11:11:06;7.27;;;6.50;;
3841;SDS011;1936;47.074;15.336;2023-05-24T11:13:26;6.27;;;4.57;;
3841;SDS011;1936;47.074;15.336;2023-05-24T11:15:30;6.93;;;5.37;;
3841;SDS011;1936;47.074;15.336;2023-05-24T11:17:34;6.90;;;5.73;;
3841;SDS011;1936;47.074;15.336;2023-05-24T11:20:16;6.23;;;5.50;;
3841;SDS011;1936;47.074;15.336;2023-05-24T11:22:21;6.90;;;6.30;;
3841;SDS011;1936;47.074;15.336;2023-05-24T11:24:28;7.27;;;6.67;;
3841;SDS011;1936;47.074;15.336;2023-05-24T11:26:32;6.60;;;6.00;;
3841;SDS011;1936;47.074;15.336;2023-05-24T11:28:35;7.37;;;6.67;;
3841;SDS011;1936;47.074;15.336;2023-05-24T11:30:39;7.03;;;6.33;;
3841;SDS011;1936;47.074;15.336;2023-05-24T11:32:46;9.10;;;7.30;;
3841;SDS011;1936;47.074;15.336;2023-05-24T11:34:50;7.90;;;7.10;;
3841;SDS011;1936;47.074;15.336;2023-05-24T11:36:53;8.13;;;7.33;;
3841;SDS011;1936;47.074;15.336;2023-05-24T11:38:56;7.60;;;6.90;;
3841;SDS011;1936;47.074;15.336;2023-05-24T11:41:03;8.40;;;6.80;;
3841;SDS011;1936;47.074;15.336;2023-05-24T11:43:07;9.70;;;8.10;;
3841;SDS011;1936;47.074;15.336;2023-05-24T11:45:14;7.13;;;6.43;;
3841;SDS011;1936;47.074;15.336;2023-05-24T11:47:20;10.47;;;7.47;;
3841;SDS011;1936;47.074;15.336;2023-05-24T11:49:24;8.07;;;7.37;;
3841;SDS011;1936;47.074;15.336;2023-05-24T11:51:28;9.60;;;8.67;;
3841;SDS011;1936;47.074;15.336;2023-05-24T11:53:33;9.53;;;6.87;;
3841;SDS011;1936;47.074;15.336;2023-05-24T11:55:37;9.50;;;8.60;;
3841;SDS011;1936;47.074;15.336;2023-05-24T11:57:44;8.60;;;7.80;;
3841;SDS011;1936;47.074;15.336;2023-05-24T11:59:53;8.63;;;7.73;;
3841;SDS011;1936;47.074;15.336;2023-05-24T12:01:58;9.50;;;8.30;;
3841;SDS011;1936;47.074;15.336;2023-05-24T12:04:04;12.43;;;8.80;;
3841;SDS011;1936;47.074;15.336;2023-05-24T12:06:09;9.37;;;8.47;;
3841;SDS011;1936;47.074;15.336;2023-05-24T12:08:16;8.87;;;7.97;;
3841;SDS011;1936;47.074;15.336;2023-05-24T12:10:20;9.90;;;8.90;;
3841;SDS011;1936;47.074;15.336;2023-05-24T12:12:24;10.90;;;8.90;;
3841;SDS011;1936;47.074;15.336;2023-05-24T12:14:44;14.00;;;10.83;;
3841;SDS011;1936;47.074;15.336;2023-05-24T12:16:47;10.27;;;9.27;;
3841;SDS011;1936;47.074;15.336;2023-05-24T12:18:51;10.83;;;9.73;;
3841;SDS011;1936;47.074;15.336;2023-05-24T12:21:09;10.07;;;9.10;;
3841;SDS011;1936;47.074;15.336;2023-05-24T12:23:13;11.80;;;10.60;;
3841;SDS011;1936;47.074;15.336;2023-05-24T12:25:17;10.03;;;9.13;;
3841;SDS011;1936;47.074;15.336;2023-05-24T12:27:24;11.20;;;10.00;;
3841;SDS011;1936;47.074;15.336;2023-05-24T12:29:32;11.77;;;10.67;;
3841;SDS011;1936;47.074;15.336;2023-05-24T12:31:40;11.83;;;10.73;;